sensor_id;sensor_type;location;lat;lon;timestamp;pressure;altitude;pressure_sealevel;temperature;humidity
21129;BME280;10722;51.910;8.352;2023-01-28T00:02:30;101873.97;;;0.60;88.45
21129;BME280;10722;51.910;8.352;2023-01-28T00:05:15;101879.72;;;0.57;88.29
21129;BME280;10722;51.910;8.352;2023-01-28T00:08:01;101882.09;;;0.66;88.41
21129;BME280;10722;51.910;8.352;2023-01-28T00:10:46;101888.72;;;0.64;88.68
21129;BME280;10722;51.910;8.352;2023-01-28T00:13:32;101887.34;;;0.79;88.37
21129;BME280;10722;51.910;8.352;2023-01-28T00:16:17;101892.22;;;0.76;88.57
21129;BME280;10722;51.910;8.352;2023-01-28T00:19:03;101895.53;;;0.87;88.17
21129;BME280;10722;51.910;8.352;2023-01-28T00:21:48;101891.22;;;0.86;88.03
21129;BME280;10722;51.910;8.352;2023-01-28T00:24:33;101891.41;;;0.77;88.06
21129;BME280;10722;51.910;8.352;2023-01-28T00:27:18;101888.97;;;0.79;88.28
21129;BME280;10722;51.910;8.352;2023-01-28T00:30:04;101890.53;;;0.77;88.08
21129;BME280;10722;51.910;8.352;2023-01-28T00:32:50;101881.00;;;0.74;88.04
21129;BME280;10722;51.910;8.352;2023-01-28T00:35:35;101872.72;;;0.77;87.54
21129;BME280;10722;51.910;8.352;2023-01-28T00:38:20;101852.31;;;0.65;87.26
21129;BME280;10722;51.910;8.352;2023-01-28T00:43:53;101882.53;;;0.72;87.43
21129;BME280;10722;51.910;8.352;2023-01-28T00:46:38;101882.78;;;0.75;87.32
21129;BME280;10722;51.910;8.352;2023-01-28T00:49:23;101886.09;;;0.74;87.56
21129;BME280;10722;51.910;8.352;2023-01-28T00:52:09;101894.50;;;0.73;87.76
21129;BME280;10722;51.910;8.352;2023-01-28T00:54:54;101900.31;;;0.82;87.86
21129;BME280;10722;51.910;8.352;2023-01-28T00:57:39;101902.19;;;0.85;87.80
21129;BME280;10722;51.910;8.352;2023-01-28T01:00:25;101893.41;;;0.81;87.37
21129;BME280;10722;51.910;8.352;2023-01-28T01:03:11;101888.31;;;0.81;87.45
21129;BME280;10722;51.910;8.352;2023-01-28T01:05:56;101895.03;;;0.69;87.87
21129;BME280;10722;51.910;8.352;2023-01-28T01:08:41;101905.69;;;0.75;88.26
21129;BME280;10722;51.910;8.352;2023-01-28T01:11:27;101920.31;;;0.78;88.29
21129;BME280;10722;51.910;8.352;2023-01-28T01:14:12;101908.38;;;0.77;88.61
21129;BME280;10722;51.910;8.352;2023-01-28T01:16:56;101910.78;;;0.75;88.50
21129;BME280;10722;51.910;8.352;2023-01-28T01:19:41;101913.09;;;0.72;88.67
21129;BME280;10722;51.910;8.352;2023-01-28T01:22:27;101922.91;;;0.89;88.27
21129;BME280;10722;51.910;8.352;2023-01-28T01:25:13;101910.09;;;1.00;88.29
21129;BME280;10722;51.910;8.352;2023-01-28T01:27:59;101922.06;;;1.01;88.31
21129;BME280;10722;51.910;8.352;2023-01-28T01:30:44;101930.47;;;1.00;88.67
21129;BME280;10722;51.910;8.352;2023-01-28T01:33:30;101943.38;;;1.13;88.88
21129;BME280;10722;51.910;8.352;2023-01-28T01:36:16;101942.81;;;1.05;89.09
21129;BME280;10722;51.910;8.352;2023-01-28T01:39:02;101941.59;;;1.12;89.07
21129;BME280;10722;51.910;8.352;2023-01-28T01:41:47;101911.91;;;0.79;88.15
21129;BME280;10722;51.910;8.352;2023-01-28T01:50:41;101912.25;;;0.83;88.52
21129;BME280;10722;51.910;8.352;2023-01-28T01:53:27;101925.03;;;0.95;88.89
21129;BME280;10722;51.910;8.352;2023-01-28T01:56:16;101926.69;;;0.95;88.92
21129;BME280;10722;51.910;8.352;2023-01-28T01:59:02;101932.78;;;0.85;88.94
21129;BME280;10722;51.910;8.352;2023-01-28T02:01:47;101933.81;;;0.65;89.25
21129;BME280;10722;51.910;8.352;2023-01-28T02:04:42;101946.50;;;0.87;89.38
21129;BME280;10722;51.910;8.352;2023-01-28T02:07:28;101948.31;;;1.00;89.28
21129;BME280;10722;51.910;8.352;2023-01-28T02:10:14;101948.97;;;0.97;88.88
21129;BME280;10722;51.910;8.352;2023-01-28T02:12:59;101939.56;;;0.96;88.98
21129;BME280;10722;51.910;8.352;2023-01-28T02:15:45;101936.88;;;0.95;88.45
21129;BME280;10722;51.910;8.352;2023-01-28T02:18:31;101943.28;;;0.89;88.41
21129;BME280;10722;51.910;8.352;2023-01-28T02:21:35;101945.19;;;0.92;88.54
21129;BME280;10722;51.910;8.352;2023-01-28T02:30:19;101959.59;;;0.92;88.98
21129;BME280;10722;51.910;8.352;2023-01-28T02:33:15;101959.19;;;0.75;88.83
21129;BME280;10722;51.910;8.352;2023-01-28T02:36:17;101951.03;;;0.79;89.25
21129;BME280;10722;51.910;8.352;2023-01-28T02:39:12;101964.69;;;0.92;88.93
21129;BME280;10722;51.910;8.352;2023-01-28T02:42:06;101963.44;;;0.86;89.17
21129;BME280;10722;51.910;8.352;2023-01-28T02:44:53;101957.28;;;0.95;88.77
21129;BME280;10722;51.910;8.352;2023-01-28T02:47:38;101959.03;;;0.96;88.68
21129;BME280;10722;51.910;8.352;2023-01-28T02:50:30;101948.38;;;0.89;88.19
21129;BME280;10722;51.910;8.352;2023-01-28T02:53:32;101954.44;;;1.02;88.81
21129;BME280;10722;51.910;8.352;2023-01-28T02:56:27;101949.53;;;0.93;88.62
21129;BME280;10722;51.910;8.352;2023-01-28T02:59:34;101952.97;;;0.94;88.89
21129;BME280;10722;51.910;8.352;2023-01-28T03:02:43;101947.09;;;0.73;88.74
21129;BME280;10722;51.910;8.352;2023-01-28T03:05:37;101944.38;;;0.81;88.92
21129;BME280;10722;51.910;8.352;2023-01-28T03:08:26;101943.28;;;0.89;88.75
21129;BME280;10722;51.910;8.352;2023-01-28T03:11:10;101937.75;;;0.83;88.37
21129;BME280;10722;51.910;8.352;2023-01-28T03:13:56;101931.94;;;0.74;88.63
21129;BME280;10722;51.910;8.352;2023-01-28T03:16:41;101947.69;;;0.80;88.66
21129;BME280;10722;51.910;8.352;2023-01-28T03:19:26;101945.50;;;0.85;88.98
21129;BME280;10722;51.910;8.352;2023-01-28T03:22:11;101956.50;;;0.96;88.96
21129;BME280;10722;51.910;8.352;2023-01-28T03:24:57;101932.97;;;0.76;88.24
21129;BME280;10722;51.910;8.352;2023-01-28T03:27:51;101919.72;;;0.70;87.70
21129;BME280;10722;51.910;8.352;2023-01-28T03:30:42;101917.53;;;0.75;87.53
21129;BME280;10722;51.910;8.352;2023-01-28T03:33:30;101915.06;;;0.64;87.29
21129;BME280;10722;51.910;8.352;2023-01-28T03:36:18;101899.97;;;0.56;87.27
21129;BME280;10722;51.910;8.352;2023-01-28T03:39:03;101902.69;;;0.47;87.33
21129;BME280;10722;51.910;8.352;2023-01-28T03:44:41;101920.28;;;0.66;87.48
21129;BME280;10722;51.910;8.352;2023-01-28T03:47:29;101914.25;;;0.54;87.53
21129;BME280;10722;51.910;8.352;2023-01-28T03:50:15;101909.00;;;0.40;87.42
21129;BME280;10722;51.910;8.352;2023-01-28T03:53:00;101906.97;;;0.36;87.64
21129;BME280;10722;51.910;8.352;2023-01-28T03:55:47;101911.94;;;0.35;87.54
21129;BME280;10722;51.910;8.352;2023-01-28T03:58:32;101925.78;;;0.38;88.01
21129;BME280;10722;51.910;8.352;2023-01-28T04:01:18;101924.69;;;0.57;86.91
21129;BME280;10722;51.910;8.352;2023-01-28T04:04:03;101916.13;;;0.56;87.09
21129;BME280;10722;51.910;8.352;2023-01-28T04:06:53;101911.34;;;0.49;87.22
21129;BME280;10722;51.910;8.352;2023-01-28T04:09:38;101909.81;;;0.51;87.26
21129;BME280;10722;51.910;8.352;2023-01-28T04:12:23;101924.84;;;0.26;87.58
21129;BME280;10722;51.910;8.352;2023-01-28T04:15:11;101930.53;;;0.34;87.87
21129;BME280;10722;51.910;8.352;2023-01-28T04:17:57;101941.53;;;0.44;87.81
21129;BME280;10722;51.910;8.352;2023-01-28T04:20:42;101949.72;;;0.40;87.72
21129;BME280;10722;51.910;8.352;2023-01-28T04:23:27;101955.53;;;0.50;87.39
21129;BME280;10722;51.910;8.352;2023-01-28T04:26:14;101945.34;;;0.50;87.33
21129;BME280;10722;51.910;8.352;2023-01-28T04:28:59;101925.34;;;0.54;86.85
21129;BME280;10722;51.910;8.352;2023-01-28T04:31:44;101931.81;;;0.51;86.89
21129;BME280;10722;51.910;8.352;2023-01-28T04:34:30;101934.31;;;0.61;86.57
21129;BME280;10722;51.910;8.352;2023-01-28T04:37:15;101934.03;;;0.68;86.55
21129;BME280;10722;51.910;8.352;2023-01-28T04:40:00;101924.81;;;0.70;86.19
21129;BME280;10722;51.910;8.352;2023-01-28T04:42:52;101914.09;;;0.40;86.02
21129;BME280;10722;51.910;8.352;2023-01-28T04:45:37;101932.66;;;0.39;86.25
21129;BME280;10722;51.910;8.352;2023-01-28T04:48:22;101926.56;;;0.37;86.10
21129;BME280;10722;51.910;8.352;2023-01-28T04:51:07;101930.06;;;0.50;85.98
21129;BME280;10722;51.910;8.352;2023-01-28T04:53:52;101909.50;;;0.36;85.63
21129;BME280;10722;51.910;8.352;2023-01-28T04:56:38;101915.94;;;0.31;85.83
21129;BME280;10722;51.910;8.352;2023-01-28T04:59:23;101936.69;;;0.48;86.32
21129;BME280;10722;51.910;8.352;2023-01-28T05:02:08;101951.03;;;0.57;86.53
21129;BME280;10722;51.910;8.352;2023-01-28T05:04:53;101943.84;;;0.63;86.46
21129;BME280;10722;51.910;8.352;2023-01-28T05:07:38;101942.09;;;0.62;86.48
21129;BME280;10722;51.910;8.352;2023-01-28T05:10:26;101948.81;;;0.62;86.30
21129;BME280;10722;51.910;8.352;2023-01-28T05:13:11;101935.19;;;0.83;85.40
21129;BME280;10722;51.910;8.352;2023-01-28T05:15:57;101902.25;;;0.75;84.53
21129;BME280;10722;51.910;8.352;2023-01-28T05:18:42;101894.69;;;0.64;84.56
21129;BME280;10722;51.910;8.352;2023-01-28T05:21:29;101907.09;;;0.60;85.18
21129;BME280;10722;51.910;8.352;2023-01-28T05:24:14;101902.00;;;0.60;84.84
21129;BME280;10722;51.910;8.352;2023-01-28T05:26:59;101909.41;;;0.57;85.02
21129;BME280;10722;51.910;8.352;2023-01-28T05:29:44;101916.50;;;0.61;85.34
21129;BME280;10722;51.910;8.352;2023-01-28T05:32:29;101925.66;;;0.59;85.81
21129;BME280;10722;51.910;8.352;2023-01-28T05:35:15;101931.25;;;0.65;85.93
21129;BME280;10722;51.910;8.352;2023-01-28T05:38:01;101947.75;;;0.70;85.93
21129;BME280;10722;51.910;8.352;2023-01-28T05:40:47;101932.38;;;0.69;85.39
21129;BME280;10722;51.910;8.352;2023-01-28T05:43:32;101934.13;;;0.70;85.13
21129;BME280;10722;51.910;8.352;2023-01-28T05:46:17;101930.84;;;0.71;85.21
21129;BME280;10722;51.910;8.352;2023-01-28T05:49:02;101927.50;;;0.72;84.69
21129;BME280;10722;51.910;8.352;2023-01-28T05:51:47;101929.19;;;0.71;84.84
21129;BME280;10722;51.910;8.352;2023-01-28T05:54:32;101936.09;;;0.62;85.22
21129;BME280;10722;51.910;8.352;2023-01-28T05:57:17;101939.88;;;0.67;85.14
21129;BME280;10722;51.910;8.352;2023-01-28T06:00:03;101952.63;;;0.67;85.83
21129;BME280;10722;51.910;8.352;2023-01-28T06:02:50;101951.38;;;0.62;85.25
21129;BME280;10722;51.910;8.352;2023-01-28T06:05:36;101931.50;;;0.68;84.85
21129;BME280;10722;51.910;8.352;2023-01-28T06:08:21;101917.38;;;0.61;84.40
21129;BME280;10722;51.910;8.352;2023-01-28T06:11:06;101903.47;;;0.68;83.78
21129;BME280;10722;51.910;8.352;2023-01-28T06:13:51;101892.09;;;0.53;83.75
21129;BME280;10722;51.910;8.352;2023-01-28T06:16:36;101902.19;;;0.51;84.40
21129;BME280;10722;51.910;8.352;2023-01-28T06:19:21;101909.91;;;0.53;84.50
21129;BME280;10722;51.910;8.352;2023-01-28T06:22:06;101925.19;;;0.53;84.65
21129;BME280;10722;51.910;8.352;2023-01-28T06:24:52;101903.16;;;0.53;84.04
21129;BME280;10722;51.910;8.352;2023-01-28T06:27:37;101915.91;;;0.53;84.02
21129;BME280;10722;51.910;8.352;2023-01-28T06:30:22;101931.31;;;0.55;84.38
21129;BME280;10722;51.910;8.352;2023-01-28T06:33:07;101924.56;;;0.55;83.67
21129;BME280;10722;51.910;8.352;2023-01-28T06:35:53;101902.41;;;0.54;83.52
21129;BME280;10722;51.910;8.352;2023-01-28T06:38:38;101890.59;;;0.66;82.47
21129;BME280;10722;51.910;8.352;2023-01-28T06:41:24;101871.53;;;0.61;82.34
21129;BME280;10722;51.910;8.352;2023-01-28T06:44:09;101856.53;;;0.42;81.94
21129;BME280;10722;51.910;8.352;2023-01-28T06:46:54;101877.13;;;0.46;82.56
21129;BME280;10722;51.910;8.352;2023-01-28T06:49:40;101886.78;;;0.50;82.76
21129;BME280;10722;51.910;8.352;2023-01-28T06:52:25;101901.94;;;0.48;83.62
21129;BME280;10722;51.910;8.352;2023-01-28T06:55:10;101939.22;;;0.48;84.54
21129;BME280;10722;51.910;8.352;2023-01-28T06:57:55;101950.38;;;0.60;84.99
21129;BME280;10722;51.910;8.352;2023-01-28T07:00:40;101951.63;;;0.65;85.09
21129;BME280;10722;51.910;8.352;2023-01-28T07:03:25;101954.41;;;0.68;84.86
21129;BME280;10722;51.910;8.352;2023-01-28T07:06:10;101952.19;;;0.51;85.03
21129;BME280;10722;51.910;8.352;2023-01-28T07:08:55;101946.03;;;0.59;84.64
21129;BME280;10722;51.910;8.352;2023-01-28T07:11:41;101939.38;;;0.49;84.76
21129;BME280;10722;51.910;8.352;2023-01-28T07:14:26;101954.50;;;0.48;85.22
21129;BME280;10722;51.910;8.352;2023-01-28T07:17:12;101963.81;;;0.47;84.90
21129;BME280;10722;51.910;8.352;2023-01-28T07:19:57;101981.78;;;0.49;85.58
21129;BME280;10722;51.910;8.352;2023-01-28T07:22:43;101979.00;;;0.46;85.84
21129;BME280;10722;51.910;8.352;2023-01-28T07:25:29;101983.28;;;0.47;85.69
21129;BME280;10722;51.910;8.352;2023-01-28T07:28:14;101966.28;;;0.35;85.38
21129;BME280;10722;51.910;8.352;2023-01-28T07:31:00;101964.47;;;0.44;85.26
21129;BME280;10722;51.910;8.352;2023-01-28T07:33:45;101975.19;;;0.40;85.97
21129;BME280;10722;51.910;8.352;2023-01-28T07:36:30;101995.63;;;0.52;86.42
21129;BME280;10722;51.910;8.352;2023-01-28T07:39:15;101985.97;;;0.48;85.86
21129;BME280;10722;51.910;8.352;2023-01-28T07:42:01;101997.69;;;0.46;86.11
21129;BME280;10722;51.910;8.352;2023-01-28T07:44:46;102009.13;;;0.51;86.55
21129;BME280;10722;51.910;8.352;2023-01-28T07:47:31;102014.31;;;0.53;86.87
21129;BME280;10722;51.910;8.352;2023-01-28T07:50:16;102018.78;;;0.55;87.23
21129;BME280;10722;51.910;8.352;2023-01-28T07:53:03;102027.66;;;0.60;87.16
21129;BME280;10722;51.910;8.352;2023-01-28T07:55:49;102034.91;;;0.66;87.38
21129;BME280;10722;51.910;8.352;2023-01-28T07:58:34;102031.25;;;0.62;87.57
21129;BME280;10722;51.910;8.352;2023-01-28T08:01:19;102012.28;;;0.81;86.57
21129;BME280;10722;51.910;8.352;2023-01-28T08:04:04;101991.25;;;0.83;85.00
21129;BME280;10722;51.910;8.352;2023-01-28T08:06:50;101944.28;;;0.58;83.38
21129;BME280;10722;51.910;8.352;2023-01-28T08:09:35;101918.53;;;0.65;82.83
21129;BME280;10722;51.910;8.352;2023-01-28T08:12:21;101918.81;;;0.58;82.25
21129;BME280;10722;51.910;8.352;2023-01-28T08:15:07;101908.69;;;0.48;81.63
21129;BME280;10722;51.910;8.352;2023-01-28T08:17:53;101905.28;;;0.59;81.45
21129;BME280;10722;51.910;8.352;2023-01-28T08:20:40;101918.97;;;0.71;81.92
21129;BME280;10722;51.910;8.352;2023-01-28T08:23:26;101936.63;;;0.80;81.91
21129;BME280;10722;51.910;8.352;2023-01-28T08:26:13;101927.28;;;0.69;81.84
21129;BME280;10722;51.910;8.352;2023-01-28T08:28:58;101937.50;;;0.80;82.00
21129;BME280;10722;51.910;8.352;2023-01-28T08:31:44;101940.28;;;0.83;81.52
21129;BME280;10722;51.910;8.352;2023-01-28T08:34:29;101954.84;;;0.96;81.66
21129;BME280;10722;51.910;8.352;2023-01-28T08:37:17;101938.38;;;0.81;81.55
21129;BME280;10722;51.910;8.352;2023-01-28T08:40:03;101958.06;;;0.94;82.08
21129;BME280;10722;51.910;8.352;2023-01-28T08:42:50;101951.09;;;0.69;81.71
21129;BME280;10722;51.910;8.352;2023-01-28T08:45:38;101971.88;;;0.85;82.41
21129;BME280;10722;51.910;8.352;2023-01-28T08:48:24;102006.75;;;0.86;83.13
21129;BME280;10722;51.910;8.352;2023-01-28T08:51:09;102008.00;;;0.92;82.45
21129;BME280;10722;51.910;8.352;2023-01-28T08:53:54;101996.69;;;0.88;82.12
21129;BME280;10722;51.910;8.352;2023-01-28T08:56:39;101974.88;;;0.92;81.54
21129;BME280;10722;51.910;8.352;2023-01-28T08:59:24;101975.44;;;0.87;81.73
21129;BME280;10722;51.910;8.352;2023-01-28T09:02:12;101968.25;;;0.94;81.17
21129;BME280;10722;51.910;8.352;2023-01-28T09:05:15;101980.66;;;1.01;80.97
21129;BME280;10722;51.910;8.352;2023-01-28T09:08:02;101994.66;;;1.06;81.02
21129;BME280;10722;51.910;8.352;2023-01-28T09:10:47;101988.53;;;1.04;80.63
21129;BME280;10722;51.910;8.352;2023-01-28T09:13:32;101984.38;;;1.04;80.49
21129;BME280;10722;51.910;8.352;2023-01-28T09:16:19;101987.19;;;0.97;80.70
21129;BME280;10722;51.910;8.352;2023-01-28T09:19:04;101972.88;;;0.87;80.14
21129;BME280;10722;51.910;8.352;2023-01-28T09:21:49;101972.34;;;0.92;80.05
21129;BME280;10722;51.910;8.352;2023-01-28T09:24:34;101999.81;;;0.96;80.22
21129;BME280;10722;51.910;8.352;2023-01-28T09:27:22;101998.41;;;0.99;80.04
21129;BME280;10722;51.910;8.352;2023-01-28T09:30:07;101997.56;;;1.10;79.71
21129;BME280;10722;51.910;8.352;2023-01-28T09:32:54;101970.88;;;1.17;79.15
21129;BME280;10722;51.910;8.352;2023-01-28T09:35:40;101967.31;;;1.15;78.86
21129;BME280;10722;51.910;8.352;2023-01-28T09:38:25;101944.84;;;1.21;78.02
21129;BME280;10722;51.910;8.352;2023-01-28T09:41:22;101939.97;;;1.24;77.88
21129;BME280;10722;51.910;8.352;2023-01-28T09:47:20;101934.16;;;1.15;77.60
21129;BME280;10722;51.910;8.352;2023-01-28T09:50:13;101936.25;;;1.09;78.00
21129;BME280;10722;51.910;8.352;2023-01-28T09:53:32;101961.66;;;1.07;77.97
21129;BME280;10722;51.910;8.352;2023-01-28T09:56:25;101983.25;;;1.12;78.40
21129;BME280;10722;51.910;8.352;2023-01-28T09:59:17;101989.59;;;1.18;78.30
21129;BME280;10722;51.910;8.352;2023-01-28T10:17:21;102004.38;;;1.22;78.90
21129;BME280;10722;51.910;8.352;2023-01-28T10:25:58;101974.88;;;1.25;78.36
21129;BME280;10722;51.910;8.352;2023-01-28T10:28:45;101975.09;;;1.28;77.90
21129;BME280;10722;51.910;8.352;2023-01-28T10:31:35;101972.91;;;1.33;78.04
21129;BME280;10722;51.910;8.352;2023-01-28T10:34:23;101991.88;;;1.37;78.59
21129;BME280;10722;51.910;8.352;2023-01-28T10:37:13;101985.22;;;1.27;78.04
21129;BME280;10722;51.910;8.352;2023-01-28T10:39:59;101979.78;;;1.34;78.00
21129;BME280;10722;51.910;8.352;2023-01-28T10:42:44;101968.91;;;1.37;77.23
21129;BME280;10722;51.910;8.352;2023-01-28T10:45:34;101955.59;;;1.41;77.11
21129;BME280;10722;51.910;8.352;2023-01-28T10:48:24;101945.00;;;1.58;76.29
21129;BME280;10722;51.910;8.352;2023-01-28T10:51:10;101941.00;;;1.62;75.82
21129;BME280;10722;51.910;8.352;2023-01-28T10:53:55;101952.53;;;1.56;76.20
21129;BME280;10722;51.910;8.352;2023-01-28T10:56:41;101966.41;;;1.60;76.20
21129;BME280;10722;51.910;8.352;2023-01-28T10:59:33;101970.59;;;1.36;76.38
21129;BME280;10722;51.910;8.352;2023-01-28T11:05:21;101966.22;;;1.23;76.37
21129;BME280;10722;51.910;8.352;2023-01-28T11:08:14;101969.00;;;1.26;76.23
21129;BME280;10722;51.910;8.352;2023-01-28T11:10:59;101956.03;;;1.23;75.99
21129;BME280;10722;51.910;8.352;2023-01-28T11:13:51;101973.66;;;1.20;76.35
21129;BME280;10722;51.910;8.352;2023-01-28T11:16:39;101983.63;;;1.17;76.27
21129;BME280;10722;51.910;8.352;2023-01-28T11:19:33;101995.94;;;1.23;76.66
21129;BME280;10722;51.910;8.352;2023-01-28T11:28:07;101961.91;;;1.22;76.09
21129;BME280;10722;51.910;8.352;2023-01-28T11:31:01;101922.69;;;0.64;75.56
21129;BME280;10722;51.910;8.352;2023-01-28T11:33:58;101950.91;;;0.78;76.19
21129;BME280;10722;51.910;8.352;2023-01-28T11:36:53;101954.97;;;0.76;76.76
21129;BME280;10722;51.910;8.352;2023-01-28T11:39:39;101960.06;;;0.98;75.94
21129;BME280;10722;51.910;8.352;2023-01-28T11:42:24;101959.38;;;0.88;76.42
21129;BME280;10722;51.910;8.352;2023-01-28T11:45:15;101967.00;;;0.88;76.83
21129;BME280;10722;51.910;8.352;2023-01-28T11:48:21;101989.72;;;1.19;76.96
21129;BME280;10722;51.910;8.352;2023-01-28T11:51:28;101944.44;;;0.93;76.01
21129;BME280;10722;51.910;8.352;2023-01-28T11:57:25;101942.63;;;0.92;76.46
21129;BME280;10722;51.910;8.352;2023-01-28T12:10:00;101894.09;;;1.60;74.77
21129;BME280;10722;51.910;8.352;2023-01-28T12:29:07;101769.25;;;3.96;68.89
21129;BME280;10722;51.910;8.352;2023-01-28T12:38:20;101644.44;;;2.41;68.00
21129;BME280;10722;51.910;8.352;2023-01-28T12:41:12;101670.56;;;1.48;69.77
21129;BME280;10722;51.910;8.352;2023-01-28T12:44:03;101717.97;;;1.70;70.55
21129;BME280;10722;51.910;8.352;2023-01-28T12:46:57;101770.97;;;1.99;71.65
21129;BME280;10722;51.910;8.352;2023-01-28T12:49:48;101781.41;;;2.52;71.34
21129;BME280;10722;51.910;8.352;2023-01-28T12:52:43;101731.84;;;2.37;70.38
21129;BME280;10722;51.910;8.352;2023-01-28T12:55:41;101720.72;;;2.23;70.04
21129;BME280;10722;51.910;8.352;2023-01-28T12:58:38;101737.88;;;2.51;69.67
21129;BME280;10722;51.910;8.352;2023-01-28T13:01:29;101743.59;;;2.21;69.96
21129;BME280;10722;51.910;8.352;2023-01-28T13:07:27;101756.69;;;3.18;68.96
21129;BME280;10722;51.910;8.352;2023-01-28T13:10:23;101709.16;;;3.34;67.45
21129;BME280;10722;51.910;8.352;2023-01-28T13:13:33;101661.50;;;2.42;67.78
21129;BME280;10722;51.910;8.352;2023-01-28T13:16:19;101717.72;;;2.55;68.82
21129;BME280;10722;51.910;8.352;2023-01-28T13:19:35;101703.47;;;3.95;66.46
21129;BME280;10722;51.910;8.352;2023-01-28T13:22:31;101668.09;;;3.46;65.97
21129;BME280;10722;51.910;8.352;2023-01-28T13:25:23;101661.63;;;3.10;66.34
21129;BME280;10722;51.910;8.352;2023-01-28T13:28:24;101714.75;;;4.56;65.16
21129;BME280;10722;51.910;8.352;2023-01-28T13:31:12;101723.50;;;5.84;63.15
21129;BME280;10722;51.910;8.352;2023-01-28T13:34:03;101617.44;;;5.69;60.52
21129;BME280;10722;51.910;8.352;2023-01-28T13:36:49;101610.28;;;5.96;59.80
21129;BME280;10722;51.910;8.352;2023-01-28T13:39:35;101537.09;;;4.88;59.44
21129;BME280;10722;51.910;8.352;2023-01-28T13:42:25;101674.91;;;5.55;61.49
21129;BME280;10722;51.910;8.352;2023-01-28T13:50:58;101643.00;;;6.17;59.42
21129;BME280;10722;51.910;8.352;2023-01-28T13:53:55;101623.53;;;6.04;59.09
21129;BME280;10722;51.910;8.352;2023-01-28T13:57:07;101653.66;;;6.24;58.89
21129;BME280;10722;51.910;8.352;2023-01-28T14:06:34;101581.06;;;6.28;57.98
21129;BME280;10722;51.910;8.352;2023-01-28T14:18:29;101612.66;;;4.79;61.17
21129;BME280;10722;51.910;8.352;2023-01-28T14:21:20;101562.56;;;4.23;60.92
21129;BME280;10722;51.910;8.352;2023-01-28T14:24:14;101634.84;;;5.58;60.17
21129;BME280;10722;51.910;8.352;2023-01-28T14:27:16;101548.34;;;5.74;58.53
21129;BME280;10722;51.910;8.352;2023-01-28T14:30:14;101508.75;;;5.02;58.70
21129;BME280;10722;51.910;8.352;2023-01-28T14:33:02;101549.28;;;5.25;59.12
21129;BME280;10722;51.910;8.352;2023-01-28T14:35:48;101534.22;;;3.18;61.78
21129;BME280;10722;51.910;8.352;2023-01-28T14:38:38;101692.97;;;2.81;65.69
21129;BME280;10722;51.910;8.352;2023-01-28T14:41:26;101743.13;;;2.92;66.41
21129;BME280;10722;51.910;8.352;2023-01-28T14:44:35;101775.50;;;3.73;65.78
21129;BME280;10722;51.910;8.352;2023-01-28T14:56:53;101844.31;;;4.23;66.08
21129;BME280;10722;51.910;8.352;2023-01-28T14:59:47;101761.13;;;4.31;63.87
21129;BME280;10722;51.910;8.352;2023-01-28T15:02:33;101700.34;;;4.29;62.40
21129;BME280;10722;51.910;8.352;2023-01-28T15:05:24;101754.50;;;4.49;62.88
21129;BME280;10722;51.910;8.352;2023-01-28T15:08:20;101771.13;;;5.01;62.54
21129;BME280;10722;51.910;8.352;2023-01-28T15:11:08;101688.88;;;4.52;61.57
21129;BME280;10722;51.910;8.352;2023-01-28T15:13:57;101756.38;;;4.97;62.22
21129;BME280;10722;51.910;8.352;2023-01-28T15:16:47;101731.72;;;4.39;62.83
21129;BME280;10722;51.910;8.352;2023-01-28T15:19:34;101751.75;;;5.06;61.91
21129;BME280;10722;51.910;8.352;2023-01-28T15:22:26;101697.16;;;5.08;60.68
21129;BME280;10722;51.910;8.352;2023-01-28T15:25:20;101663.56;;;5.04;59.99
21129;BME280;10722;51.910;8.352;2023-01-28T15:28:24;101700.28;;;5.03;60.88
21129;BME280;10722;51.910;8.352;2023-01-28T15:31:31;101637.69;;;3.94;60.97
21129;BME280;10722;51.910;8.352;2023-01-28T15:34:19;101701.34;;;2.91;64.13
21129;BME280;10722;51.910;8.352;2023-01-28T15:37:04;101799.78;;;3.25;65.79
21129;BME280;10722;51.910;8.352;2023-01-28T15:40:00;101814.91;;;3.75;65.08
21129;BME280;10722;51.910;8.352;2023-01-28T15:42:46;101821.31;;;3.42;66.06
21129;BME280;10722;51.910;8.352;2023-01-28T15:45:31;101794.97;;;2.51;66.40
21129;BME280;10722;51.910;8.352;2023-01-28T15:48:17;101840.94;;;2.26;68.33
21129;BME280;10722;51.910;8.352;2023-01-28T15:51:08;101872.31;;;2.00;69.60
21129;BME280;10722;51.910;8.352;2023-01-28T15:54:06;101920.00;;;2.13;71.00
21129;BME280;10722;51.910;8.352;2023-01-28T15:56:52;101933.59;;;2.00;71.34
21129;BME280;10722;51.910;8.352;2023-01-28T15:59:37;101934.53;;;1.31;72.68
21129;BME280;10722;51.910;8.352;2023-01-28T16:02:23;102003.47;;;1.55;73.89
21129;BME280;10722;51.910;8.352;2023-01-28T16:08:23;102016.25;;;1.33;74.51
21129;BME280;10722;51.910;8.352;2023-01-28T16:11:10;102040.19;;;1.35;75.24
21129;BME280;10722;51.910;8.352;2023-01-28T16:13:56;102041.75;;;1.33;75.42
21129;BME280;10722;51.910;8.352;2023-01-28T16:16:45;102018.34;;;0.93;75.58
21129;BME280;10722;51.910;8.352;2023-01-28T16:19:36;102026.59;;;0.47;76.35
21129;BME280;10722;51.910;8.352;2023-01-28T16:28:18;102100.28;;;0.45;78.72
21129;BME280;10722;51.910;8.352;2023-01-28T16:31:05;102124.47;;;0.50;79.89
21129;BME280;10722;51.910;8.352;2023-01-28T16:33:50;102137.28;;;0.62;79.79
21129;BME280;10722;51.910;8.352;2023-01-28T16:36:35;102119.47;;;0.62;79.73
21129;BME280;10722;51.910;8.352;2023-01-28T16:39:21;102097.19;;;0.17;79.81
21129;BME280;10722;51.910;8.352;2023-01-28T16:42:07;102095.53;;;0.17;79.93
21129;BME280;10722;51.910;8.352;2023-01-28T16:44:52;102104.31;;;0.31;79.89
21129;BME280;10722;51.910;8.352;2023-01-28T16:47:37;102085.69;;;0.42;80.05
21129;BME280;10722;51.910;8.352;2023-01-28T16:50:23;102060.97;;;0.41;79.76
21129;BME280;10722;51.910;8.352;2023-01-28T16:53:29;102050.13;;;0.02;80.08
21129;BME280;10722;51.910;8.352;2023-01-28T16:56:17;102063.16;;;-0.36;80.59
21129;BME280;10722;51.910;8.352;2023-01-28T16:59:24;102063.13;;;-0.57;81.68
21129;BME280;10722;51.910;8.352;2023-01-28T17:02:11;102079.81;;;-0.60;82.37